Sabot, Virginia
Current Conditions -  °F | °C
As of 5:54 PM on Sunday 21 Dec 2014 (Local Time) from KOFP Reporting Station
Clear Clear  
Wind Chill: 33°   Ceiling: Unl
Heat Index: 33°   Visibility: 10mi
Dew Point: 27°   Wind: 0mph
Humidity: 78%   Direction: NA
Pressure: 30.31"   Gusts: NA
Location:  37.6517°N, 77.7212°W
Report Text: KOFP 212254Z AUTO 00000KT 10SM CLR 01/M03 A3031 RMK AO2 SLP266 T00061028
Loading
Personal Weather Stations






























Interactive Weather Map New forecast layout! Learn more

10-Day Weather Forecast

Advertisements
Track Severe Weather on mobile